createdAt,value
2022-09-28T00:03:14.681Z,9.34
2022-09-28T00:08:18.742Z,9.31
2022-09-28T00:13:21.360Z,9.32
2022-09-28T00:18:24.078Z,9.33
2022-09-28T00:23:28.083Z,9.34
2022-09-28T00:28:31.296Z,9.41
2022-09-28T00:33:33.896Z,9.37
2022-09-28T00:38:40.529Z,9.36
2022-09-28T00:43:43.180Z,9.38
2022-09-28T00:48:52.008Z,9.37
2022-09-28T00:53:56.867Z,9.29
2022-09-28T00:59:00.793Z,9.31
2022-09-28T01:04:07.227Z,9.28
2022-09-28T01:09:11.766Z,9.29
2022-09-28T01:14:16.406Z,9.26
2022-09-28T01:19:34.755Z,9.25
2022-09-28T01:24:43.463Z,9.22
2022-09-28T01:29:53.494Z,9.20
2022-09-28T01:35:04.478Z,9.11
2022-09-28T01:40:08.479Z,9.10
2022-09-28T01:45:16.014Z,9.10
2022-09-28T01:50:22.290Z,9.11
2022-09-28T01:55:29.626Z,9.14
2022-09-28T02:00:36.030Z,9.12
2022-09-28T02:05:40.789Z,9.07
2022-09-28T02:10:45.610Z,9.04
2022-09-28T02:15:53.051Z,8.97
2022-09-28T02:21:00.831Z,8.96
2022-09-28T02:26:08.236Z,8.91
2022-09-28T02:31:13.508Z,8.85
2022-09-28T02:36:16.480Z,8.81
2022-09-28T02:41:28.035Z,8.79
2022-09-28T02:46:35.648Z,8.78
2022-09-28T02:51:55.640Z,8.77
2022-09-28T02:57:10.904Z,8.65
2022-09-28T03:02:21.419Z,8.61
2022-09-28T03:07:26.118Z,8.62
2022-09-28T03:12:29.950Z,8.67
2022-09-28T03:17:34.070Z,8.66
2022-09-28T03:22:37.834Z,8.65
2022-09-28T03:27:41.197Z,8.59
2022-09-28T03:32:46.048Z,8.61
2022-09-28T03:37:55.605Z,8.59
2022-09-28T03:43:01.054Z,8.64
2022-09-28T03:48:05.237Z,8.70
2022-09-28T03:53:09.776Z,8.71
2022-09-28T03:58:12.382Z,8.70
2022-09-28T04:03:17.155Z,8.73
2022-09-28T04:08:20.287Z,8.69
2022-09-28T04:13:23.084Z,8.70
2022-09-28T04:18:27.401Z,8.71
2022-09-28T04:23:53.141Z,8.69
2022-09-28T04:29:14.505Z,8.68
2022-09-28T04:34:21.939Z,8.62
2022-09-28T04:39:25.345Z,8.61
2022-09-28T04:44:30.243Z,8.60
2022-09-28T04:49:38.718Z,8.62
2022-09-28T04:54:46.599Z,8.62
2022-09-28T04:59:49.228Z,8.67
2022-09-28T05:04:55.428Z,8.70
2022-09-28T05:10:19.841Z,8.81
2022-09-28T05:15:22.750Z,8.83
2022-09-28T05:20:26.926Z,8.87
2022-09-28T05:25:29.734Z,8.90
2022-09-28T05:30:42.137Z,8.91
2022-09-28T05:36:09.800Z,8.95
2022-09-28T05:41:12.632Z,8.95
2022-09-28T05:46:15.606Z,8.94
2022-09-28T05:51:20.071Z,8.98
2022-09-28T05:56:23.491Z,8.98
2022-09-28T06:01:28.491Z,8.98
2022-09-28T06:06:35.609Z,9.01
2022-09-28T06:11:38.524Z,9.03
2022-09-28T06:16:47.551Z,9.08
2022-09-28T06:21:51.920Z,9.13
2022-09-28T06:26:54.681Z,9.10
2022-09-28T06:31:57.935Z,9.08
2022-09-28T06:37:04.641Z,9.14
2022-09-28T06:42:07.792Z,9.20
2022-09-28T06:47:28.901Z,9.23
2022-09-28T06:52:55.214Z,9.34
2022-09-28T06:58:17.036Z,9.47
2022-09-28T07:03:21.704Z,9.52
2022-09-28T07:08:56.466Z,9.59
2022-09-28T07:14:45.686Z,9.59
2022-09-28T07:19:52.578Z,9.62
2022-09-28T07:24:57.643Z,9.61
2022-09-28T07:30:18.688Z,9.66
2022-09-28T07:35:52.166Z,9.69
2022-09-28T07:41:14.071Z,9.84
2022-09-28T07:46:22.905Z,10.01
2022-09-28T07:51:32.589Z,10.03
2022-09-28T07:56:55.130Z,9.99
2022-09-28T08:02:06.012Z,9.96
2022-09-28T08:07:10.361Z,9.83
2022-09-28T08:12:14.816Z,9.82
2022-09-28T08:17:21.747Z,9.74
2022-09-28T08:22:32.119Z,9.78
2022-09-28T08:27:37.129Z,9.81
2022-09-28T08:32:42.509Z,9.82
2022-09-28T08:38:14.790Z,9.78
2022-09-28T08:43:59.758Z,9.77
2022-09-28T08:49:30.034Z,9.78
2022-09-28T08:54:59.938Z,9.70
2022-09-28T09:00:18.602Z,9.65
2022-09-28T09:05:22.318Z,9.75
2022-09-28T09:10:48.714Z,9.78
2022-09-28T09:15:58.641Z,9.77
2022-09-28T09:21:30.941Z,9.83
2022-09-28T09:26:39.241Z,9.87
2022-09-28T09:31:52.931Z,9.94
2022-09-28T09:37:06.406Z,10.00
2022-09-28T09:42:32.023Z,10.11
2022-09-28T09:48:00.042Z,10.11
2022-09-28T09:53:05.693Z,10.07
2022-09-28T09:58:14.942Z,10.03
2022-09-28T10:03:26.541Z,10.21
2022-09-28T10:08:35.711Z,10.38
2022-09-28T10:13:39.017Z,10.54
2022-09-28T10:18:55.329Z,10.57
2022-09-28T10:24:19.341Z,10.72
2022-09-28T10:29:23.405Z,10.93
2022-09-28T10:34:28.865Z,10.75
2022-09-28T10:39:36.445Z,10.68
2022-09-28T10:44:51.581Z,10.48
2022-09-28T10:50:04.286Z,10.35
2022-09-28T10:55:29.384Z,10.33
2022-09-28T11:00:35.156Z,10.33
2022-09-28T11:06:02.831Z,10.33
2022-09-28T11:11:08.649Z,10.26
2022-09-28T11:16:24.431Z,10.80
2022-09-28T11:21:32.232Z,11.48
2022-09-28T11:26:41.794Z,11.49
2022-09-28T11:31:48.880Z,11.14
2022-09-28T11:37:10.493Z,10.79
2022-09-28T11:42:23.488Z,10.51
2022-09-28T11:47:48.267Z,10.20
2022-09-28T11:52:58.753Z,9.82
2022-09-28T11:58:05.295Z,9.86
2022-09-28T12:03:10.782Z,9.95
2022-09-28T12:08:20.737Z,9.91
2022-09-28T12:13:39.064Z,9.74
2022-09-28T12:18:45.865Z,9.73
2022-09-28T12:23:50.540Z,9.79
2022-09-28T12:28:57.481Z,10.04
2022-09-28T12:34:00.499Z,10.28
2022-09-28T12:39:35.754Z,10.26
2022-09-28T12:44:59.485Z,10.40
2022-09-28T12:55:50.982Z,10.22
2022-09-28T13:01:01.347Z,10.19
2022-09-28T13:06:17.373Z,10.18
2022-09-28T13:11:31.827Z,10.19
2022-09-28T13:16:38.647Z,10.16
2022-09-28T13:21:44.639Z,10.35
2022-09-28T13:26:49.024Z,10.40
2022-09-28T13:31:54.445Z,13.05
2022-09-28T13:37:19.824Z,13.52
2022-09-28T13:42:29.158Z,14.69
2022-09-28T13:47:43.242Z,13.36
2022-09-28T13:52:49.712Z,12.47
2022-09-28T13:57:57.184Z,13.22
2022-09-28T14:03:05.759Z,14.15
2022-09-28T14:08:24.907Z,14.50
2022-09-28T14:14:00.672Z,14.41
2022-09-28T14:19:07.094Z,13.98
2022-09-28T14:24:19.296Z,13.41
2022-09-28T14:29:31.234Z,13.08
2022-09-28T14:34:36.374Z,12.74
2022-09-28T14:39:57.094Z,13.05
2022-09-28T14:45:24.648Z,13.11
2022-09-28T14:50:28.602Z,13.41
2022-09-28T14:55:34.698Z,14.32
2022-09-28T15:00:39.321Z,13.78
2022-09-28T15:05:47.037Z,15.77
2022-09-28T15:10:51.453Z,14.47
2022-09-28T15:16:00.929Z,13.03
2022-09-28T15:21:04.098Z,12.20
2022-09-28T15:26:08.484Z,11.85
2022-09-28T15:31:19.284Z,11.60
2022-09-28T15:36:25.381Z,11.50
2022-09-28T15:41:29.645Z,11.43
2022-09-28T15:46:35.063Z,11.27
2022-09-28T15:51:48.375Z,11.21
2022-09-28T15:56:53.563Z,11.21
2022-09-28T16:02:11.484Z,11.27
2022-09-28T16:07:24.147Z,11.77
2022-09-28T16:12:31.779Z,11.62
2022-09-28T16:17:36.399Z,11.68
2022-09-28T16:22:39.257Z,11.43
2022-09-28T16:27:44.605Z,11.19
2022-09-28T16:32:53.090Z,11.04
2022-09-28T16:38:10.614Z,10.92
2022-09-28T16:43:19.888Z,10.75
2022-09-28T16:48:25.461Z,10.60
2022-09-28T16:53:45.715Z,10.43
2022-09-28T16:58:50.202Z,10.29
2022-09-28T17:03:54.515Z,10.19
2022-09-28T17:08:59.081Z,10.11
2022-09-28T17:14:03.560Z,10.05
2022-09-28T17:19:17.766Z,9.98
2022-09-28T17:24:20.866Z,9.94
2022-09-28T17:29:23.889Z,9.94
2022-09-28T17:34:28.136Z,9.89
2022-09-28T17:39:31.627Z,9.82
2022-09-28T17:44:34.187Z,9.78
2022-09-28T17:49:38.808Z,9.72
2022-09-28T17:54:41.454Z,9.68
2022-09-28T17:59:44.080Z,9.64
2022-09-28T18:04:52.150Z,9.64
2022-09-28T18:09:56.754Z,9.69
2022-09-28T18:14:59.306Z,9.68
2022-09-28T18:20:03.774Z,9.62
2022-09-28T18:25:07.580Z,9.59
2022-09-28T18:30:10.855Z,9.62
2022-09-28T18:35:15.897Z,9.64
2022-09-28T18:40:21.718Z,9.67
2022-09-28T18:45:24.422Z,9.73
2022-09-28T18:50:28.478Z,9.71
2022-09-28T18:55:31.178Z,9.63
2022-09-28T19:00:34.887Z,9.59
2022-09-28T19:05:42.428Z,9.53
2022-09-28T19:10:48.565Z,9.47
2022-09-28T19:15:51.225Z,9.46
2022-09-28T19:20:55.325Z,9.39
2022-09-28T19:25:57.948Z,9.36
2022-09-28T19:36:12.965Z,9.30
2022-09-28T19:41:40.923Z,9.27
2022-09-28T19:46:45.933Z,9.23
2022-09-28T19:57:15.722Z,9.12
2022-09-28T20:02:18.796Z,9.11
2022-09-28T20:07:22.983Z,9.09
2022-09-28T20:12:25.650Z,9.09
2022-09-28T20:17:28.326Z,9.12
2022-09-28T20:22:32.390Z,9.02
2022-09-28T20:27:35.247Z,8.96
2022-09-28T20:32:38.061Z,8.98
2022-09-28T20:37:43.224Z,8.95
2022-09-28T20:42:46.161Z,8.98
2022-09-28T20:47:49.065Z,8.95
2022-09-28T20:52:53.028Z,8.95
2022-09-28T20:57:55.835Z,9.04
2022-09-28T21:02:58.517Z,9.08
2022-09-28T21:08:03.083Z,9.04
2022-09-28T21:13:06.004Z,8.98
2022-09-28T21:18:08.857Z,8.93
2022-09-28T21:23:12.834Z,8.83
2022-09-28T21:28:16.263Z,8.76
2022-09-28T21:33:18.912Z,8.68
2022-09-28T21:38:23.030Z,8.64
2022-09-28T21:43:26.163Z,8.60
2022-09-28T21:48:29.655Z,8.54
2022-09-28T21:53:34.876Z,8.50
2022-09-28T21:58:37.850Z,8.42
2022-09-28T22:03:40.459Z,8.39
2022-09-28T22:08:45.151Z,8.37
2022-09-28T22:13:49.171Z,8.34
2022-09-28T22:18:52.188Z,8.34
2022-09-28T22:24:00.751Z,8.32
2022-09-28T22:29:05.625Z,8.34
2022-09-28T22:34:08.965Z,8.32
2022-09-28T22:39:14.495Z,8.33
2022-09-28T22:44:17.122Z,8.26
2022-09-28T22:49:19.745Z,8.26
2022-09-28T22:54:23.685Z,8.24
2022-09-28T22:59:26.307Z,8.29
2022-09-28T23:04:29.211Z,8.30
2022-09-28T23:09:33.203Z,8.36
2022-09-28T23:14:35.785Z,8.38
2022-09-28T23:19:38.391Z,8.43
2022-09-28T23:24:42.342Z,8.48
2022-09-28T23:29:48.707Z,8.54
2022-09-28T23:34:51.323Z,8.53
2022-09-28T23:39:55.852Z,8.46
2022-09-28T23:44:58.555Z,8.55
2022-09-28T23:50:01.441Z,8.60
2022-09-28T23:55:06.602Z,8.64
